Time;durP1;ratioP1;P1;durP2;ratioP2;P2;SDS_P1;SDS_P2;PMS_P1;PMS_P2;Temp;Humidity;BMP_temperature;BMP_pressure;BME280_temperature;BME280_humidity;BME280_pressure;Samples;Min_cycle;Max_cycle;Signal;HPM_P1;HPM_P2
2024/01/30 00:03:18;;;;;;;116.30;49.40;;;;;;;0.94;100.00;102063.02;222816;1264;140478;-88
2024/01/30 00:08:18;;;;;;;133.90;59.20;;;;;;;0.87;100.00;102065.91;222810;1269;139455;-87
2024/01/30 00:13:19;;;;;;;106.20;47.10;;;;;;;0.82;100.00;102067.54;223198;1266;139764;-87
2024/01/30 00:18:20;;;;;;;119.80;47.50;;;;;;;0.76;100.00;102064.17;223831;1263;138971;-87
2024/01/30 00:23:20;;;;;;;103.70;45.80;;;;;;;0.73;100.00;102058.61;222584;1264;139682;-86
2024/01/30 00:28:21;;;;;;;130.70;52.00;;;;;;;0.68;100.00;102058.66;220084;1263;98535;-87
2024/01/30 00:33:21;;;;;;;130.00;54.50;;;;;;;0.63;100.00;102060.98;219393;1269;140055;-87
2024/01/30 00:38:22;;;;;;;132.10;54.40;;;;;;;0.58;100.00;102059.91;220007;1265;138789;-86
2024/01/30 00:43:24;;;;;;;121.40;50.70;;;;;;;0.54;100.00;102063.27;221303;1266;138752;-87
2024/01/30 00:48:25;;;;;;;111.60;50.60;;;;;;;0.49;100.00;102064.34;220096;1267;139179;-86
2024/01/30 00:53:26;;;;;;;93.80;42.60;;;;;;;0.45;100.00;102067.06;219408;1263;140630;-87
2024/01/30 00:58:26;;;;;;;109.70;48.00;;;;;;;0.40;100.00;102066.67;220030;1264;98012;-87
2024/01/30 01:03:27;;;;;;;88.30;43.10;;;;;;;0.35;100.00;102063.58;219333;1264;140013;-87
2024/01/30 01:08:27;;;;;;;70.90;34.10;;;;;;;0.31;100.00;102056.75;219896;1266;138893;-87
2024/01/30 01:13:28;;;;;;;64.40;31.20;;;;;;;0.27;100.00;102053.88;219485;1266;139762;-88
2024/01/30 01:18:28;;;;;;;62.40;31.10;;;;;;;0.21;100.00;102047.50;219949;1267;139037;-88
2024/01/30 01:23:29;;;;;;;64.20;32.10;;;;;;;0.18;100.00;102048.40;219328;1265;140098;-88
2024/01/30 01:28:30;;;;;;;70.80;33.00;;;;;;;0.13;100.00;102049.91;219870;1266;138804;-87
2024/01/30 01:33:32;;;;;;;79.00;36.00;;;;;;;0.09;100.00;102046.83;219431;1266;140273;-87
2024/01/30 01:38:33;;;;;;;90.30;40.00;;;;;;;0.05;100.00;102046.37;219747;1264;138653;-87
2024/01/30 01:43:33;;;;;;;114.70;49.30;;;;;;;0.01;100.00;102051.45;221436;1266;138542;-87
2024/01/30 01:48:34;;;;;;;133.40;55.20;;;;;;;-0.07;100.00;102049.92;219707;1264;139575;-88
2024/01/30 01:53:34;;;;;;;97.40;41.80;;;;;;;-0.09;100.00;102053.98;219241;1264;140731;-87
2024/01/30 01:58:36;;;;;;;96.40;42.20;;;;;;;-0.13;100.00;102055.00;219571;1269;140720;-87
2024/01/30 02:03:37;;;;;;;70.30;31.60;;;;;;;-0.16;100.00;102052.06;219175;1264;139775;-87
2024/01/30 02:08:39;;;;;;;68.30;29.60;;;;;;;-0.19;100.00;102047.94;219715;1264;139344;-87
2024/01/30 02:13:41;;;;;;;58.40;27.70;;;;;;;-0.22;100.00;102044.85;219365;1269;139842;-87
2024/01/30 02:18:45;;;;;;;61.90;26.90;;;;;;;-0.26;100.00;102041.60;219757;1268;139295;-87
2024/01/30 02:23:47;;;;;;;61.80;26.70;;;;;;;-0.27;100.00;102049.33;219244;1266;139831;-88
2024/01/30 02:28:47;;;;;;;59.30;26.80;;;;;;;-0.29;100.00;102045.59;219629;1265;139395;-87
2024/01/30 02:33:48;;;;;;;60.10;27.30;;;;;;;-0.32;100.00;102042.75;219376;1269;141728;-87
2024/01/30 02:38:48;;;;;;;58.60;27.70;;;;;;;-0.35;100.00;102039.02;220143;1264;139633;-88
2024/01/30 02:43:49;;;;;;;60.30;27.20;;;;;;;-0.36;100.00;102034.48;221158;1267;139875;-88
2024/01/30 02:48:49;;;;;;;46.50;22.70;;;;;;;-0.37;100.00;102034.52;220102;1266;139706;-87
2024/01/30 02:53:49;;;;;;;50.00;23.50;;;;;;;-0.35;100.00;102036.96;220168;1266;140479;-87
2024/01/30 02:58:50;;;;;;;54.90;24.70;;;;;;;-0.34;100.00;102035.19;219889;1264;140695;-87
2024/01/30 03:03:50;;;;;;;49.90;23.90;;;;;;;-0.33;100.00;102033.08;219648;1266;139859;-87
2024/01/30 03:08:51;;;;;;;53.20;25.40;;;;;;;-0.34;100.00;102026.42;219758;1269;139700;-87
2024/01/30 03:13:51;;;;;;;53.50;24.20;;;;;;;-0.35;100.00;102024.27;219237;1268;140136;-87
2024/01/30 03:18:52;;;;;;;53.50;24.10;;;;;;;-0.32;100.00;102020.58;220095;1269;139145;-88
2024/01/30 03:23:53;;;;;;;57.30;24.00;;;;;;;-0.30;100.00;102017.06;219383;1267;139983;-87
2024/01/30 03:28:54;;;;;;;54.10;22.70;;;;;;;-0.25;100.00;102014.28;221139;1268;138959;-88
2024/01/30 03:33:55;;;;;;;49.70;23.10;;;;;;;-0.22;100.00;102014.71;220827;1266;139850;-86
2024/01/30 03:38:55;;;;;;;53.00;22.90;;;;;;;-0.17;100.00;102015.48;220793;1269;139329;-87
2024/01/30 03:43:56;;;;;;;49.90;21.70;;;;;;;-0.10;100.00;102018.42;221515;1266;139858;-87
2024/01/30 03:48:56;;;;;;;47.80;22.80;;;;;;;-0.06;100.00;102012.10;220342;1264;139773;-88
2024/01/30 03:53:56;;;;;;;46.10;20.40;;;;;;;-0.01;100.00;102012.10;220075;1264;140495;-87
2024/01/30 03:58:58;;;;;;;48.10;21.60;;;;;;;0.03;100.00;102009.84;220510;1268;139459;-87
2024/01/30 04:03:59;;;;;;;43.80;19.50;;;;;;;0.08;100.00;102018.52;219881;1268;139980;-87
2024/01/30 04:08:59;;;;;;;43.40;20.80;;;;;;;0.14;100.00;102016.93;219923;1264;138831;-86
2024/01/30 04:13:59;;;;;;;44.80;19.50;;;;;;;0.18;100.00;102016.56;219400;1267;140301;-86
2024/01/30 04:19:00;;;;;;;42.20;18.70;;;;;;;0.20;100.00;102016.84;220124;1268;139342;-87
2024/01/30 04:24:00;;;;;;;47.10;20.50;;;;;;;0.20;100.00;102012.94;219252;1269;139924;-86
2024/01/30 04:29:01;;;;;;;41.30;19.40;;;;;;;0.22;100.00;102018.95;220046;1267;139296;-86
2024/01/30 04:34:01;;;;;;;42.00;18.90;;;;;;;0.23;100.00;102021.23;220670;1269;139483;-86
2024/01/30 04:39:03;;;;;;;37.20;19.20;;;;;;;0.23;100.00;102023.02;221071;1269;138859;-87
2024/01/30 04:44:04;;;;;;;44.50;21.00;;;;;;;0.21;100.00;102021.23;221808;1264;139535;-85
2024/01/30 04:49:04;;;;;;;45.90;20.70;;;;;;;0.21;100.00;102021.39;220977;1269;138803;-87
2024/01/30 04:54:05;;;;;;;39.10;20.10;;;;;;;0.19;100.00;102022.48;220471;1264;139731;-86
2024/01/30 04:59:06;;;;;;;49.90;22.80;;;;;;;0.19;100.00;102020.36;220840;1264;139452;-87
2024/01/30 05:04:09;;;;;;;44.20;22.00;;;;;;;0.19;100.00;102021.17;220297;1266;140287;-86
2024/01/30 05:09:11;;;;;;;45.80;21.70;;;;;;;0.17;100.00;102020.84;220499;1264;138986;-86
2024/01/30 05:14:12;;;;;;;55.70;23.70;;;;;;;0.18;100.00;102022.85;220519;1267;139423;-87
2024/01/30 05:19:14;;;;;;;49.50;22.90;;;;;;;0.17;100.00;102028.15;221090;1264;138772;-87
2024/01/30 05:24:14;;;;;;;53.60;24.20;;;;;;;0.17;100.00;102028.31;220803;1264;140737;-87
2024/01/30 05:29:15;;;;;;;45.20;21.90;;;;;;;0.16;100.00;102031.19;221045;1267;138757;-87
2024/01/30 05:34:16;;;;;;;54.70;22.70;;;;;;;0.15;100.00;102029.39;220692;1264;139632;-87
2024/01/30 05:39:16;;;;;;;49.80;22.50;;;;;;;0.16;100.00;102030.73;220930;1267;139131;-87
2024/01/30 05:44:17;;;;;;;46.70;22.40;;;;;;;0.14;100.00;102028.63;221516;1264;139831;-87
2024/01/30 05:49:17;;;;;;;48.10;22.10;;;;;;;0.13;100.00;102031.17;221462;1268;138755;-87
2024/01/30 05:54:18;;;;;;;48.70;21.10;;;;;;;0.12;100.00;102030.69;221131;1269;139786;-86
2024/01/30 05:59:18;;;;;;;43.60;22.20;;;;;;;0.11;100.00;102031.13;221474;1264;138924;-87
2024/01/30 06:04:19;;;;;;;45.60;20.90;;;;;;;0.09;100.00;102036.80;220984;1264;139596;-87
2024/01/30 06:09:19;;;;;;;44.60;21.60;;;;;;;0.07;100.00;102030.14;221189;1264;138460;-86
2024/01/30 06:14:20;;;;;;;49.80;20.80;;;;;;;0.06;100.00;102029.44;220573;1264;139477;-86
2024/01/30 06:19:21;;;;;;;60.20;23.00;;;;;;;0.06;100.00;102026.79;221139;1269;139452;-87
2024/01/30 06:24:21;;;;;;;55.80;23.60;;;;;;;0.04;100.00;102030.23;220314;1267;139690;-87
2024/01/30 06:29:24;;;;;;;70.70;25.50;;;;;;;0.05;100.00;102028.51;221109;1264;138813;-87
2024/01/30 06:34:26;;;;;;;79.70;29.50;;;;;;;0.05;100.00;102032.79;220698;1264;140683;-87
2024/01/30 06:39:26;;;;;;;78.70;28.60;;;;;;;0.05;100.00;102032.89;220886;1264;139134;-87
2024/01/30 06:44:28;;;;;;;55.90;23.90;;;;;;;0.06;100.00;102030.36;221467;1264;139622;-86
2024/01/30 06:49:28;;;;;;;46.70;21.80;;;;;;;0.08;100.00;102022.08;221680;1264;138788;-87
2024/01/30 06:54:28;;;;;;;57.30;24.40;;;;;;;0.09;100.00;102018.94;220418;1264;140383;-87
2024/01/30 06:59:29;;;;;;;56.60;23.50;;;;;;;0.10;100.00;102019.59;220933;1264;139349;-87
2024/01/30 07:04:31;;;;;;;64.10;25.70;;;;;;;0.13;100.00;102025.06;220616;1267;140197;-87
2024/01/30 07:09:31;;;;;;;53.70;24.50;;;;;;;0.15;100.00;102026.25;221288;1264;99188;-86
2024/01/30 07:14:32;;;;;;;54.00;24.80;;;;;;;0.18;100.00;102028.36;220799;1264;139291;-86
2024/01/30 07:19:32;;;;;;;46.90;22.60;;;;;;;0.22;100.00;102030.44;220827;1264;138915;-87
2024/01/30 07:24:33;;;;;;;46.40;22.70;;;;;;;0.26;100.00;102031.73;220496;1264;140127;-86
2024/01/30 07:29:34;;;;;;;52.00;23.00;;;;;;;0.32;100.00;102033.52;220976;1264;138940;-86
2024/01/30 07:34:36;;;;;;;51.40;22.80;;;;;;;0.41;100.00;102035.27;220514;1264;140074;-87
2024/01/30 07:39:36;;;;;;;43.20;20.60;;;;;;;0.50;100.00;102036.45;221003;1264;112800;-85
2024/01/30 07:44:37;;;;;;;57.10;24.60;;;;;;;0.61;100.00;102039.10;221411;1264;139755;-86
2024/01/30 07:49:37;;;;;;;56.20;23.50;;;;;;;0.69;100.00;102033.52;221464;1264;139320;-86
2024/01/30 07:54:39;;;;;;;52.20;22.40;;;;;;;0.81;100.00;102038.60;220418;1264;140025;-86
2024/01/30 07:59:45;;;;;;;57.70;22.90;;;;;;;0.91;100.00;102035.39;221081;1264;139265;-87
2024/01/30 08:04:48;;;;;;;46.30;20.90;;;;;;;1.02;100.00;102033.25;220519;1264;139330;-86
2024/01/30 08:09:49;;;;;;;45.00;20.80;;;;;;;1.15;100.00;102030.05;221272;1264;138499;-85
2024/01/30 08:14:49;;;;;;;46.00;20.60;;;;;;;1.28;100.00;102035.40;220716;1263;140421;-86
2024/01/30 08:19:50;;;;;;;48.40;20.30;;;;;;;1.42;100.00;102036.80;220983;1264;138931;-86
2024/01/30 08:24:50;;;;;;;43.50;21.20;;;;;;;1.58;100.00;102036.64;220682;1265;139469;-86
2024/01/30 08:29:51;;;;;;;42.00;20.50;;;;;;;1.76;100.00;102033.67;221059;1264;139445;-86
2024/01/30 08:34:51;;;;;;;46.10;19.60;;;;;;;1.94;100.00;102030.58;220537;1264;139971;-86
2024/01/30 08:39:52;;;;;;;37.80;19.70;;;;;;;2.14;100.00;102031.87;220803;1264;139282;-84
2024/01/30 08:44:54;;;;;;;37.10;18.90;;;;;;;2.32;100.00;102030.54;221187;1264;139358;-85
2024/01/30 08:49:55;;;;;;;36.30;18.30;;;;;;;2.51;100.00;102031.95;221174;1267;139891;-85
2024/01/30 08:54:55;;;;;;;37.10;18.20;;;;;;;2.68;100.00;102028.88;221504;1267;139813;-88
2024/01/30 08:59:56;;;;;;;40.50;18.30;;;;;;;2.84;100.00;102034.05;220619;1264;140642;-87
2024/01/30 09:04:56;;;;;;;36.50;18.10;;;;;;;3.01;100.00;102037.52;220669;1267;139356;-89
2024/01/30 09:10:00;;;;;;;40.20;19.80;;;;;;;3.17;100.00;102039.09;220633;1264;164036;-89
2024/01/30 09:15:00;;;;;;;43.60;19.20;;;;;;;3.36;100.00;102031.69;220961;1264;139242;-88
2024/01/30 09:20:01;;;;;;;42.90;19.70;;;;;;;3.54;100.00;102028.52;220589;1264;139617;-88
2024/01/30 09:25:02;;;;;;;36.20;17.70;;;;;;;3.73;100.00;102020.48;221255;1263;140975;-87
2024/01/30 09:30:03;;;;;;;32.70;17.60;;;;;;;3.92;100.00;102011.77;220356;1264;139996;-89
2024/01/30 09:35:03;;;;;;;37.30;18.60;;;;;;;4.11;100.00;102009.42;220786;1264;138893;-90
2024/01/30 09:40:05;;;;;;;42.30;19.40;;;;;;;4.32;100.00;102005.39;220610;1264;139561;-90
2024/01/30 09:45:06;;;;;;;39.10;18.60;;;;;;;4.49;100.00;101999.98;221227;1268;138937;-88
2024/01/30 09:50:07;;;;;;;34.80;16.90;;;;;;;4.68;100.00;101997.64;220616;1269;140000;-90
2024/01/30 09:55:07;;;;;;;34.00;16.50;;;;;;;4.86;100.00;101992.45;221236;1264;138813;-91
2024/01/30 10:00:08;;;;;;;35.00;17.30;;;;;;;5.05;100.00;101992.82;220723;1264;139692;-91
2024/01/30 10:05:09;;;;;;;30.80;14.70;;;;;;;5.24;99.94;101986.68;221588;1264;138886;-92
2024/01/30 10:10:10;;;;;;;28.50;14.90;;;;;;;5.40;99.11;101983.41;220830;1264;140504;-94
2024/01/30 10:15:11;;;;;;;29.90;14.40;;;;;;;5.59;98.89;101981.69;221002;1264;138505;-91
2024/01/30 10:20:12;;;;;;;31.40;14.00;;;;;;;5.77;97.72;101986.98;220447;1267;139658;-95
2024/01/30 10:25:13;;;;;;;26.20;12.90;;;;;;;5.95;96.52;101980.96;220947;1264;225091;-91
2024/01/30 10:30:14;;;;;;;27.80;13.40;;;;;;;6.12;96.27;101975.08;220448;1265;139365;-89
2024/01/30 10:35:15;;;;;;;33.70;14.50;;;;;;;6.27;94.78;101972.38;221021;1264;139072;-94
2024/01/30 10:40:16;;;;;;;30.50;13.30;;;;;;;6.40;94.10;101961.16;220666;1264;140250;-92
2024/01/30 10:45:17;;;;;;;33.40;14.50;;;;;;;6.52;92.39;101966.10;221934;1263;138397;-92
2024/01/30 10:50:18;;;;;;;32.50;14.50;;;;;;;6.62;92.29;101959.55;221039;1264;139605;-91
2024/01/30 10:55:19;;;;;;;32.00;15.00;;;;;;;6.76;91.48;101956.33;221260;1265;138785;-89
2024/01/30 11:00:23;;;;;;;36.10;15.80;;;;;;;6.90;91.93;101953.83;220462;1264;140674;-88
2024/01/30 11:05:27;;;;;;;32.00;15.90;;;;;;;7.01;90.36;101953.39;221199;1265;138684;-87
2024/01/30 11:10:29;;;;;;;28.70;14.10;;;;;;;7.09;90.56;101944.23;220931;1264;139887;-89
2024/01/30 11:15:31;;;;;;;28.00;13.70;;;;;;;7.16;90.55;101940.76;220945;1264;138381;-87
2024/01/30 11:20:32;;;;;;;29.60;14.20;;;;;;;7.21;89.08;101936.83;220400;1265;140269;-88
2024/01/30 11:25:33;;;;;;;32.40;15.00;;;;;;;7.23;89.51;101923.80;221253;1264;138745;-91
2024/01/30 11:30:33;;;;;;;30.60;13.80;;;;;;;7.27;88.75;101921.72;220416;1264;139684;-88
2024/01/30 11:35:36;;;;;;;31.00;15.40;;;;;;;7.29;88.86;101915.95;220913;1263;138657;-88
2024/01/30 11:40:38;;;;;;;30.10;14.30;;;;;;;7.32;87.71;101910.83;220471;1264;139895;-85
2024/01/30 11:45:39;;;;;;;30.40;15.20;;;;;;;7.33;87.72;101901.90;221950;1264;98046;-87
2024/01/30 11:50:40;;;;;;;32.80;15.10;;;;;;;7.37;86.94;101891.86;220924;1264;139328;-90
2024/01/30 11:55:41;;;;;;;29.30;14.20;;;;;;;7.41;87.19;101891.81;220936;1263;139319;-87
2024/01/30 12:00:41;;;;;;;34.90;15.00;;;;;;;7.47;87.10;101890.96;220548;1264;140057;-89
2024/01/30 12:05:44;;;;;;;30.20;14.60;;;;;;;7.53;87.05;101884.37;221075;1265;139329;-87
2024/01/30 12:10:45;;;;;;;34.10;14.30;;;;;;;7.60;87.17;101880.26;220763;1264;140278;-87
2024/01/30 12:15:45;;;;;;;31.80;14.70;;;;;;;7.67;86.75;101870.33;221505;1263;97605;-87
2024/01/30 12:20:57;;;;;;;30.70;15.00;;;;;;;7.74;86.45;101866.42;220645;1264;139545;-88
2024/01/30 12:25:58;;;;;;;36.00;15.40;;;;;;;7.80;86.26;101864.88;221307;1264;138542;-87
2024/01/30 12:31:03;;;;;;;25.90;14.60;;;;;;;7.85;86.08;101863.66;220517;1264;139597;-86
2024/01/30 12:36:04;;;;;;;26.60;13.70;;;;;;;7.86;85.75;101857.55;220823;1264;139847;-86
2024/01/30 12:41:07;;;;;;;31.10;14.90;;;;;;;7.87;86.06;101849.23;220389;1264;139578;-86
2024/01/30 12:46:07;;;;;;;28.40;14.00;;;;;;;7.91;85.27;101849.77;221904;1264;97900;-88
2024/01/30 12:51:08;;;;;;;27.90;15.00;;;;;;;7.92;84.71;101844.02;220492;1264;139734;-89
2024/01/30 12:56:08;;;;;;;29.30;13.50;;;;;;;7.96;85.72;101840.27;220854;1267;138454;-87
2024/01/30 13:01:09;;;;;;;31.20;14.60;;;;;;;7.99;85.12;101829.94;220169;1264;140704;-89
2024/01/30 13:06:09;;;;;;;28.00;15.70;;;;;;;8.04;83.86;101829.47;220652;1264;138535;-91
2024/01/30 13:11:12;;;;;;;30.30;14.70;;;;;;;8.09;83.28;101831.38;220310;1264;139760;-87
2024/01/30 13:16:12;;;;;;;29.40;14.20;;;;;;;8.12;83.49;101831.98;220989;1263;97923;-90
2024/01/30 13:21:13;;;;;;;26.10;14.20;;;;;;;8.16;83.72;101832.06;220367;1264;139640;-89
2024/01/30 13:26:14;;;;;;;33.00;14.80;;;;;;;8.18;83.57;101825.61;220881;1264;139373;-90
2024/01/30 13:31:15;;;;;;;29.30;15.30;;;;;;;8.22;83.21;101818.95;220294;1264;139633;-86
2024/01/30 13:36:15;;;;;;;31.80;15.60;;;;;;;8.26;83.48;101811.62;220848;1264;139266;-86
2024/01/30 13:41:17;;;;;;;27.50;14.80;;;;;;;8.28;83.55;101809.84;220522;1264;139665;-88
2024/01/30 13:46:17;;;;;;;28.20;13.80;;;;;;;8.29;83.42;101809.15;222107;1264;96704;-87
2024/01/30 13:51:18;;;;;;;27.10;13.80;;;;;;;8.30;82.91;101804.92;220741;1264;139509;-88
2024/01/30 13:56:20;;;;;;;37.10;15.70;;;;;;;8.33;82.59;101802.84;220865;1266;138646;-89
2024/01/30 14:01:21;;;;;;;29.40;15.30;;;;;;;8.37;82.43;101801.41;220745;1264;139835;-88
2024/01/30 14:06:21;;;;;;;29.10;13.80;;;;;;;8.37;82.05;101798.48;220919;1267;139513;-88
2024/01/30 14:11:22;;;;;;;27.20;13.10;;;;;;;8.37;81.76;101793.73;220533;1264;139979;-87
2024/01/30 14:16:24;;;;;;;25.60;13.40;;;;;;;8.35;81.48;101788.12;220919;1267;98886;-88
2024/01/30 14:21:25;;;;;;;35.40;14.10;;;;;;;8.34;81.86;101791.51;220331;1264;140309;-88
2024/01/30 14:26:25;;;;;;;32.70;15.60;;;;;;;8.32;82.40;101786.42;220557;1264;138999;-88
2024/01/30 14:31:25;;;;;;;31.50;15.40;;;;;;;8.31;82.73;101778.69;220230;1264;139558;-87
2024/01/30 14:36:27;;;;;;;30.40;15.40;;;;;;;8.29;83.39;101776.79;220755;1264;138868;-88
2024/01/30 14:41:28;;;;;;;33.30;16.60;;;;;;;8.25;83.59;101778.36;219929;1268;139918;-88
2024/01/30 14:46:29;;;;;;;41.90;17.10;;;;;;;8.21;83.79;101785.06;222089;1264;99173;-90
2024/01/30 14:51:30;;;;;;;30.60;15.40;;;;;;;8.14;83.18;101803.08;220305;1264;139669;-89
2024/01/30 14:56:30;;;;;;;35.90;17.90;;;;;;;8.07;83.07;101807.41;220703;1266;138573;-89
2024/01/30 15:01:30;;;;;;;37.90;20.40;;;;;;;8.00;83.27;101804.82;220244;1264;139772;-87
2024/01/30 15:06:31;;;;;;;38.40;19.30;;;;;;;7.91;83.61;101804.75;220391;1265;138750;-89
2024/01/30 15:11:33;;;;;;;38.00;18.70;;;;;;;7.81;84.34;101802.35;220368;1264;140080;-89
2024/01/30 15:16:33;;;;;;;45.70;22.10;;;;;;;7.69;84.68;101804.50;220667;1265;97943;-89
2024/01/30 15:21:34;;;;;;;37.00;18.80;;;;;;;7.58;85.17;101803.60;220123;1264;139587;-89
2024/01/30 15:26:34;;;;;;;37.20;18.80;;;;;;;7.46;85.55;101805.11;220733;1266;138514;-89
2024/01/30 15:31:35;;;;;;;39.20;19.00;;;;;;;7.34;86.04;101809.60;220346;1264;139914;-89
2024/01/30 15:36:35;;;;;;;36.60;18.50;;;;;;;7.23;86.48;101809.95;220964;1264;139362;-89
2024/01/30 15:41:36;;;;;;;41.00;18.90;;;;;;;7.10;86.84;101805.04;220650;1264;140092;-89
2024/01/30 15:46:37;;;;;;;38.80;19.80;;;;;;;6.97;87.25;101798.48;221615;1264;138600;-89
2024/01/30 15:51:37;;;;;;;41.10;20.60;;;;;;;6.83;88.13;101796.39;221264;1264;139922;-88
2024/01/30 15:56:38;;;;;;;40.60;21.00;;;;;;;6.70;88.87;101790.15;220913;1264;138575;-89
2024/01/30 16:01:40;;;;;;;40.40;21.20;;;;;;;6.57;89.56;101784.03;220770;1264;139899;-89
2024/01/30 16:06:42;;;;;;;49.50;27.10;;;;;;;6.44;90.36;101779.87;221032;1268;139435;-90
2024/01/30 16:11:43;;;;;;;45.20;23.30;;;;;;;6.30;91.06;101781.70;220315;1266;139804;-91
2024/01/30 16:16:43;;;;;;;46.20;23.00;;;;;;;6.22;91.66;101789.88;220465;1264;140382;-90
2024/01/30 16:21:45;;;;;;;46.90;24.90;;;;;;;6.13;92.21;101788.71;220364;1264;139911;-90
2024/01/30 16:26:46;;;;;;;49.00;26.60;;;;;;;6.03;92.91;101789.69;220730;1264;139274;-89
2024/01/30 16:31:46;;;;;;;59.70;33.20;;;;;;;5.93;93.55;101792.37;220269;1266;140212;-89
2024/01/30 16:36:47;;;;;;;57.00;29.30;;;;;;;5.82;94.02;101796.52;220867;1264;138878;-88
2024/01/30 16:41:47;;;;;;;56.70;29.80;;;;;;;5.72;94.57;101795.23;220123;1266;140099;-87
2024/01/30 16:46:48;;;;;;;61.30;31.50;;;;;;;5.62;94.98;101794.80;220819;1266;137595;-87
2024/01/30 16:51:48;;;;;;;57.20;30.50;;;;;;;5.54;95.53;101786.00;220678;1266;140199;-90
2024/01/30 16:56:48;;;;;;;52.70;29.30;;;;;;;5.45;96.13;101785.14;220854;1264;138804;-89
2024/01/30 17:01:49;;;;;;;62.20;31.00;;;;;;;5.35;96.29;101782.86;220383;1266;140978;-88
2024/01/30 17:06:52;;;;;;;57.30;29.40;;;;;;;5.25;96.80;101779.00;220636;1265;138804;-87
2024/01/30 17:11:52;;;;;;;56.60;28.50;;;;;;;5.17;97.04;101779.63;220246;1267;140008;-88
2024/01/30 17:16:53;;;;;;;49.80;26.80;;;;;;;5.05;97.18;101776.36;221003;1268;139398;-87
2024/01/30 17:21:53;;;;;;;53.40;25.80;;;;;;;4.97;97.63;101769.19;220338;1265;140060;-88
2024/01/30 17:26:53;;;;;;;57.20;27.20;;;;;;;4.91;98.10;101766.53;220595;1264;138874;-87
2024/01/30 17:31:54;;;;;;;58.10;28.90;;;;;;;4.84;98.32;101772.59;220170;1266;140538;-87
2024/01/30 17:36:54;;;;;;;54.20;27.80;;;;;;;4.79;98.41;101772.85;220663;1265;138965;-89
2024/01/30 17:41:55;;;;;;;53.40;25.60;;;;;;;4.77;98.53;101773.29;220328;1264;140320;-87
2024/01/30 17:46:55;;;;;;;63.60;29.10;;;;;;;4.71;98.42;101776.26;221216;1264;138891;-87
2024/01/30 17:51:55;;;;;;;51.10;24.50;;;;;;;4.60;98.72;101780.79;220611;1264;140301;-89
2024/01/30 17:56:56;;;;;;;50.40;26.50;;;;;;;4.58;99.07;101778.38;220929;1264;138700;-87
2024/01/30 18:01:57;;;;;;;49.00;25.00;;;;;;;4.54;99.05;101777.09;220027;1266;139822;-88
2024/01/30 18:06:57;;;;;;;54.20;25.70;;;;;;;4.51;99.24;101768.72;219941;1269;138645;-89
2024/01/30 18:11:57;;;;;;;46.60;26.00;;;;;;;4.53;99.60;101766.58;219617;1269;141118;-89
2024/01/30 18:16:58;;;;;;;55.50;26.60;;;;;;;4.59;99.67;101755.77;220380;1266;138718;-89
2024/01/30 18:21:58;;;;;;;46.80;24.40;;;;;;;4.63;99.63;101759.36;219715;1264;139713;-88
2024/01/30 18:26:59;;;;;;;50.80;26.10;;;;;;;4.66;99.67;101764.25;220241;1267;138578;-89
2024/01/30 18:32:00;;;;;;;53.20;25.20;;;;;;;4.65;99.63;101766.84;219530;1266;139941;-88
2024/01/30 18:37:01;;;;;;;52.60;25.80;;;;;;;4.63;99.65;101769.71;219886;1266;139028;-88
2024/01/30 18:42:01;;;;;;;48.50;24.50;;;;;;;4.59;99.68;101763.64;219414;1267;140380;-88
2024/01/30 18:47:02;;;;;;;53.80;26.10;;;;;;;4.54;99.99;101765.86;220192;1266;138610;-88
2024/01/30 18:52:04;;;;;;;55.70;27.60;;;;;;;4.55;100.00;101764.86;219876;1266;140063;-89
2024/01/30 18:57:05;;;;;;;48.20;26.30;;;;;;;4.57;100.00;101760.45;219938;1266;139905;-89
2024/01/30 19:02:06;;;;;;;48.10;25.90;;;;;;;4.60;100.00;101755.88;219320;1264;139715;-90
2024/01/30 19:07:06;;;;;;;53.20;26.90;;;;;;;4.61;100.00;101758.73;219706;1266;138942;-88
2024/01/30 19:12:07;;;;;;;67.70;29.10;;;;;;;4.63;100.00;101762.89;219412;1268;140128;-90
2024/01/30 19:17:10;;;;;;;60.70;30.50;;;;;;;4.66;100.00;101762.11;219949;1265;140467;-89
2024/01/30 19:22:11;;;;;;;62.30;32.50;;;;;;;4.70;100.00;101768.64;220012;1265;140260;-89
2024/01/30 19:27:11;;;;;;;67.50;34.80;;;;;;;4.74;100.00;101764.89;220042;1266;139139;-88
2024/01/30 19:32:12;;;;;;;73.30;35.30;;;;;;;4.76;100.00;101762.55;219500;1263;140231;-87
2024/01/30 19:37:12;;;;;;;63.60;32.70;;;;;;;4.77;100.00;101768.54;220152;1267;138968;-88
2024/01/30 19:42:14;;;;;;;72.80;35.80;;;;;;;4.74;100.00;101762.93;219470;1266;139766;-88
2024/01/30 19:47:14;;;;;;;71.20;34.90;;;;;;;4.70;100.00;101760.30;220634;1266;140078;-87
2024/01/30 19:52:14;;;;;;;68.40;33.60;;;;;;;4.67;99.99;101754.84;219914;1268;140269;-87
2024/01/30 19:57:15;;;;;;;62.60;30.30;;;;;;;4.65;100.00;101755.10;220103;1264;138821;-88
2024/01/30 20:02:19;;;;;;;68.50;33.80;;;;;;;4.62;100.00;101758.45;219373;1265;139871;-89
2024/01/30 20:07:20;;;;;;;72.30;34.50;;;;;;;4.59;99.95;101760.38;220150;1269;140313;-92
2024/01/30 20:12:20;;;;;;;75.00;35.80;;;;;;;4.58;99.99;101763.56;219579;1267;139897;-89
2024/01/30 20:17:21;;;;;;;68.50;36.20;;;;;;;4.56;99.88;101773.35;220176;1269;138598;-89
2024/01/30 20:22:21;;;;;;;65.30;33.80;;;;;;;4.54;99.69;101778.23;219663;1263;139112;-90
2024/01/30 20:27:22;;;;;;;62.90;31.40;;;;;;;4.53;99.57;101780.92;220064;1266;138587;-89
2024/01/30 20:32:22;;;;;;;59.60;29.60;;;;;;;4.54;99.34;101773.84;219248;1264;139848;-89
2024/01/30 20:37:23;;;;;;;67.10;32.00;;;;;;;4.54;99.09;101764.05;220112;1269;139403;-87
2024/01/30 20:42:24;;;;;;;62.80;30.90;;;;;;;4.53;99.00;101761.96;219476;1268;139620;-90
2024/01/30 20:47:24;;;;;;;64.70;30.10;;;;;;;4.52;98.84;101757.77;220926;1266;138738;-88
2024/01/30 20:52:25;;;;;;;61.80;30.20;;;;;;;4.51;98.59;101759.70;219842;1266;140301;-87
2024/01/30 20:57:26;;;;;;;56.20;27.50;;;;;;;4.51;98.69;101754.54;220331;1269;139297;-87
2024/01/30 21:02:26;;;;;;;65.20;29.60;;;;;;;4.50;98.46;101771.70;219563;1268;140386;-87
2024/01/30 21:07:27;;;;;;;56.30;27.80;;;;;;;4.49;98.67;101763.63;220095;1268;138850;-88
2024/01/30 21:12:28;;;;;;;49.90;27.00;;;;;;;4.47;98.59;101767.49;219213;1268;140208;-89
2024/01/30 21:17:28;;;;;;;49.50;25.40;;;;;;;4.45;98.76;101767.62;220005;1265;138606;-87
2024/01/30 21:22:29;;;;;;;56.60;26.80;;;;;;;4.45;98.94;101752.97;219606;1264;140224;-88
2024/01/30 21:27:30;;;;;;;48.40;25.80;;;;;;;4.45;98.89;101761.42;220166;1266;138775;-89
2024/01/30 21:32:31;;;;;;;51.30;26.60;;;;;;;4.45;98.96;101768.69;219389;1267;139884;-88
2024/01/30 21:37:33;;;;;;;55.30;25.90;;;;;;;4.44;99.12;101765.81;219891;1264;139790;-88
2024/01/30 21:42:33;;;;;;;47.10;23.30;;;;;;;4.43;99.36;101774.05;220573;1268;139900;-89
2024/01/30 21:47:33;;;;;;;54.10;25.90;;;;;;;4.42;99.55;101769.67;220630;1264;139120;-90
2024/01/30 21:52:37;;;;;;;51.10;24.50;;;;;;;4.41;99.65;101766.36;220108;1269;140075;-89
2024/01/30 21:57:37;;;;;;;52.50;24.50;;;;;;;4.40;99.73;101765.13;220144;1265;106563;-88
2024/01/30 22:02:38;;;;;;;45.50;23.10;;;;;;;4.39;99.97;101764.92;219393;1269;139794;-88
2024/01/30 22:07:38;;;;;;;42.50;22.90;;;;;;;4.38;99.92;101762.44;219993;1269;138772;-88
2024/01/30 22:12:41;;;;;;;48.10;24.50;;;;;;;4.37;100.00;101759.73;219489;1269;139664;-89
2024/01/30 22:17:41;;;;;;;46.50;22.00;;;;;;;4.37;100.00;101762.30;220759;1267;140290;-88
2024/01/30 22:22:42;;;;;;;44.30;22.00;;;;;;;4.37;100.00;101764.33;219308;1267;212729;-88